Impacts TAF Board INFO
FOR SITUATIONAL AWARENESS. NOT TO BE USED FOR FLIGHT PLANNING PURPOSES.
IDs:

KMIA - Miami Intl, FL, US

Issued at 1134 UTC 19 Jun 2018
Updated at 1237 UTC 19 Jun 2018
Potential Impact None Slight Moderate High
Time1153Z 19/13Z 19/14Z 19/15Z 19/16Z 19/17Z 19/18Z 19/19Z 19/20Z 19/21Z 19/22Z 19/23Z 20/00Z 20/01Z>>
Type OBS PRVL PRVL PRVL PRVL PRVL PRVL PRVL PRVL PRVL PRVL PRVL PRVL PRVL
VIS 10 >6 >6 >6 >6 >6 >6 >6 >6 >6 >6 >6 >6 >6
CIG -- -- -- -- -- -- -- -- -- -- -- -- -- --
Cover SCT SCT SCT SCT SCT SCT SCT SCT SCT SCT SCT SCT SCT SCT
FltCat VFR VFR VFR VFR VFR VFR VFR VFR VFR VFR VFR VFR VFR VFR
WX -- -- VCSH VCSH VCSH VCSH VCSH VCSH VCSH VCSH VCSH VCSH -- --
WDir 330 VRB 110 110 110 110 120 120 120 120 120 120 VRB VRB
WSpd 4 3 6 6 6 6 10 10 10 10 10 10 6 6
WGst -- -- -- -- -- -- -- -- -- -- -- -- -- --

Raw TAF
KMIA 191134Z 1912/2018 VRB03KT P6SM FEW025 SCT250
  FM191400 11006KT P6SM VCSH SCT025
  FM191800 12010KT P6SM VCSH SCT030 SCT050
  FM200000 VRB06KT P6SM SCT030
  FM200200 VRB03KT P6SM SCT030
  FM201400 14007KT P6SM SCT025 BKN050


Raw METAR
KMIA 191153Z 33004KT 10SM FEW025 SCT250 27/24 A3004 RMK AO2 SLP172 T02720239 10272 20256 53014 $
KMIA 191053Z 00000KT 10SM FEW025 SCT250 26/24 A3003 RMK AO2 SLP167 T02610239 $
KMIA 190953Z 00000KT 10SM FEW025 FEW040 SCT250 26/24 A3001 RMK AO2 SLP163 CB DSNT E T02560239 $

METAR Board
Radar Display
Forecast Discussion

FOR SITUATIONAL AWARENESS. NOT TO BE USED FOR FLIGHT PLANNING PURPOSES.